Time;durP1;ratioP1;P1;durP2;ratioP2;P2;SDS_P1;SDS_P2;PMS_P1;PMS_P2;Temp;Humidity;BMP_temperature;BMP_pressure;BME280_temperature;BME280_humidity;BME280_pressure;Samples;Min_cycle;Max_cycle;Signal;HPM_P1;HPM_P2
2022/10/16 00:00:34;;;;;;;14.95;10.32;;;;;;;14.18;100.00;98260.03;2622491;28;20045;-78
2022/10/16 00:02:10;;;;;;;18.90;10.85;;;;;;;14.30;100.00;98266.53;2622587;28;20143;-77
2022/10/16 00:03:25;;;;;;;17.20;9.10;;;;;;;14.37;100.00;98267.94;2622423;28;20041;-77
2022/10/16 00:04:41;;;;;;;14.98;9.23;;;;;;;14.40;100.00;98265.19;2622561;28;20087;-77
2022/10/16 00:05:59;;;;;;;13.57;8.77;;;;;;;14.12;100.00;98267.28;2622505;28;20076;-77
2022/10/16 00:07:15;;;;;;;15.15;8.77;;;;;;;14.32;100.00;98267.31;2622455;28;20044;-77
2022/10/16 00:08:31;;;;;;;14.40;8.18;;;;;;;14.23;100.00;98269.41;2622674;28;20048;-77
2022/10/16 00:09:47;;;;;;;12.20;8.07;;;;;;;14.33;100.00;98269.88;2622320;28;20313;-77
2022/10/16 00:11:12;;;;;;;11.55;7.65;;;;;;;14.48;100.00;98270.94;2622466;28;20132;-77
2022/10/16 00:12:28;;;;;;;12.30;8.00;;;;;;;14.37;100.00;98270.56;2622510;28;20075;-77
2022/10/16 00:13:46;;;;;;;14.98;9.05;;;;;;;14.22;100.00;98272.16;2622200;28;20040;-77
2022/10/16 00:15:02;;;;;;;17.15;10.85;;;;;;;14.27;100.00;98260.47;2622219;28;20056;-78
2022/10/16 00:16:18;;;;;;;18.13;10.07;;;;;;;14.32;100.00;98267.31;2622332;28;20484;-77
2022/10/16 00:17:34;;;;;;;16.40;10.00;;;;;;;14.36;100.00;98269.72;2622394;28;20056;-77
2022/10/16 00:18:50;;;;;;;15.57;10.13;;;;;;;14.46;100.00;98266.66;2622218;28;20090;-77
2022/10/16 00:20:06;;;;;;;18.48;9.85;;;;;;;14.38;100.00;98264.38;2622531;28;20064;-77
2022/10/16 00:21:24;;;;;;;19.58;9.88;;;;;;;14.38;100.00;98264.38;2622501;28;20135;-78
2022/10/16 00:22:40;;;;;;;15.93;9.25;;;;;;;14.44;100.00;98265.88;2622340;28;20049;-77
2022/10/16 00:24:01;;;;;;;20.08;9.88;;;;;;;14.13;100.00;98268.16;2622283;28;20040;-77
2022/10/16 00:25:16;;;;;;;17.27;9.43;;;;;;;14.19;100.00;98273.13;2622187;28;20106;-77
2022/10/16 00:26:33;;;;;;;14.10;8.32;;;;;;;14.38;100.00;98269.63;2622290;28;20048;-77
2022/10/16 00:27:49;;;;;;;16.33;7.75;;;;;;;14.36;100.00;98272.38;2622391;28;20513;-77
2022/10/16 00:29:05;;;;;;;12.27;7.03;;;;;;;14.49;100.00;98270.00;2622209;28;20067;-77
2022/10/16 00:30:20;;;;;;;10.27;7.05;;;;;;;14.51;100.00;98275.22;2632564;28;20048;-77
2022/10/16 00:31:36;;;;;;;13.98;7.05;;;;;;;14.59;100.00;98269.56;2632855;28;20475;-77
2022/10/16 00:32:52;;;;;;;11.13;6.13;;;;;;;14.57;100.00;98274.06;2632727;28;20139;-77
2022/10/16 00:34:07;;;;;;;10.85;6.18;;;;;;;14.63;100.00;98273.75;2632674;28;20507;-77
2022/10/16 00:35:23;;;;;;;8.77;6.13;;;;;;;14.66;100.00;98278.88;2632667;28;20178;-77
2022/10/16 00:36:38;;;;;;;8.80;5.22;;;;;;;14.65;100.00;98280.69;2632611;28;20092;-77
2022/10/16 00:37:54;;;;;;;7.85;5.70;;;;;;;14.72;100.00;98283.03;2632809;28;20452;-77
2022/10/16 00:39:10;;;;;;;10.80;6.32;;;;;;;14.75;100.00;98275.00;2632605;28;20194;-77
2022/10/16 00:40:25;;;;;;;10.93;5.85;;;;;;;14.61;100.00;98273.84;2632809;28;20047;-78
2022/10/16 00:41:41;;;;;;;10.43;6.90;;;;;;;14.64;100.00;98264.94;2632754;28;20450;-77
2022/10/16 00:42:57;;;;;;;10.63;6.22;;;;;;;14.50;100.00;98265.59;2632804;28;20387;-77
2022/10/16 00:44:45;;;;;;;10.75;6.03;;;;;;;14.57;100.00;98269.63;2632422;28;20044;-77
2022/10/16 00:46:03;;;;;;;7.47;5.45;;;;;;;14.45;100.00;98275.47;2632717;28;20479;-77
2022/10/16 00:47:35;;;;;;;10.40;5.57;;;;;;;14.53;100.00;98274.22;2632543;28;20131;-77
2022/10/16 00:49:00;;;;;;;6.95;5.07;;;;;;;14.55;100.00;98282.91;2632658;28;20048;-77
2022/10/16 00:50:22;;;;;;;7.85;4.50;;;;;;;14.68;100.00;98283.16;2632372;28;20052;-78
2022/10/16 00:51:39;;;;;;;10.25;4.40;;;;;;;14.76;100.00;98279.34;2632717;28;20475;-77
2022/10/16 00:52:57;;;;;;;10.77;6.32;;;;;;;14.64;100.00;98281.59;2632598;28;20048;-77
2022/10/16 00:54:32;;;;;;;8.13;5.43;;;;;;;14.74;100.00;98284.69;2632429;28;20078;-77
2022/10/16 00:55:48;;;;;;;9.00;5.85;;;;;;;14.76;100.00;98280.19;2632449;28;20085;-78
2022/10/16 00:57:05;;;;;;;7.82;5.68;;;;;;;14.72;100.00;98291.81;2632659;28;20081;-77
2022/10/16 00:58:21;;;;;;;9.85;5.82;;;;;;;14.73;100.00;98284.75;2632589;28;20064;-77
2022/10/16 00:59:41;;;;;;;7.82;5.55;;;;;;;14.58;100.00;98288.94;2632353;28;20056;-77
2022/10/16 01:00:56;;;;;;;12.00;6.50;;;;;;;14.27;100.00;98292.06;2632233;28;20088;-77
2022/10/16 01:02:14;;;;;;;12.20;7.15;;;;;;;14.35;100.00;98288.22;2632386;28;20583;-77
2022/10/16 01:03:35;;;;;;;10.80;6.43;;;;;;;14.21;100.00;98281.81;2632392;28;20044;-77
2022/10/16 01:04:53;;;;;;;10.52;6.72;;;;;;;14.26;100.00;98285.09;2632574;28;20443;-77
2022/10/16 01:06:24;;;;;;;10.18;6.13;;;;;;;14.22;100.00;98280.03;2632301;28;20133;-77
2022/10/16 01:07:44;;;;;;;11.50;5.75;;;;;;;14.33;100.00;98279.53;2632370;28;20040;-77
2022/10/16 01:09:20;;;;;;;12.38;7.03;;;;;;;14.42;100.00;98273.88;2632366;28;20113;-77
2022/10/16 01:10:57;;;;;;;7.28;4.18;;;;;;;14.03;100.00;98272.13;2631840;28;20048;-77
2022/10/16 01:12:35;;;;;;;4.80;3.70;;;;;;;13.96;100.00;98272.38;2632179;28;20138;-77
2022/10/16 01:13:58;;;;;;;7.97;4.20;;;;;;;13.94;100.00;98279.50;2632179;28;20426;-77
2022/10/16 01:15:38;;;;;;;11.93;6.13;;;;;;;14.07;100.00;98281.56;2632497;28;20414;-77
2022/10/16 01:17:06;;;;;;;16.40;8.88;;;;;;;14.21;100.00;98281.81;2632233;28;20051;-77
2022/10/16 01:18:43;;;;;;;21.95;10.27;;;;;;;14.26;100.00;98282.47;2632409;28;20102;-77
2022/10/16 01:20:10;;;;;;;15.13;9.35;;;;;;;14.22;100.00;98278.25;2632366;28;20511;-77
2022/10/16 01:21:36;;;;;;;17.42;9.57;;;;;;;14.22;100.00;98277.41;2632418;28;20051;-77
2022/10/16 01:23:14;;;;;;;17.02;9.40;;;;;;;13.96;100.00;98280.28;2632273;28;20056;-77
2022/10/16 01:24:39;;;;;;;20.08;10.32;;;;;;;13.94;100.00;98284.75;2632253;28;20131;-77
2022/10/16 01:26:15;;;;;;;21.05;10.43;;;;;;;13.93;100.00;98290.09;2632221;28;20120;-77
2022/10/16 01:27:35;;;;;;;19.33;10.70;;;;;;;14.03;100.00;98285.28;2632292;28;20105;-77
2022/10/16 01:28:57;;;;;;;20.67;11.07;;;;;;;13.97;100.00;98292.53;2632248;28;20052;-77
2022/10/16 01:30:24;;;;;;;16.55;10.02;;;;;;;13.73;100.00;98293.59;2631794;28;20620;-77
2022/10/16 01:31:44;;;;;;;23.08;11.05;;;;;;;13.84;100.00;98291.38;2632134;28;20048;-77
2022/10/16 01:33:06;;;;;;;19.13;9.63;;;;;;;13.81;100.00;98289.72;2632031;28;20145;-77
2022/10/16 01:34:50;;;;;;;17.45;11.02;;;;;;;13.96;100.00;98285.53;2620904;28;20486;-77
2022/10/16 01:36:13;;;;;;;18.10;10.63;;;;;;;13.65;100.00;98286.88;2629461;28;20073;-77
2022/10/16 01:37:37;;;;;;;16.33;9.93;;;;;;;13.92;100.00;98291.03;2632159;28;20479;-77
2022/10/16 01:39:00;;;;;;;16.05;9.88;;;;;;;14.07;100.00;98292.97;2632144;28;20036;-77
2022/10/16 01:40:19;;;;;;;17.40;10.52;;;;;;;14.08;100.00;98292.06;2631929;28;20121;-77
2022/10/16 01:41:50;;;;;;;14.13;9.63;;;;;;;13.92;100.00;98302.41;2631904;28;20044;-77
2022/10/16 01:43:12;;;;;;;17.23;10.35;;;;;;;14.00;100.00;98294.16;2632055;28;20047;-77
2022/10/16 01:44:33;;;;;;;23.67;11.30;;;;;;;13.92;100.00;98296.28;2632165;28;20039;-77
2022/10/16 01:45:50;;;;;;;15.50;9.45;;;;;;;13.64;100.00;98297.50;2632091;28;20055;-77
2022/10/16 01:47:09;;;;;;;15.70;9.60;;;;;;;13.79;100.00;98290.69;2631902;28;20055;-77
2022/10/16 01:48:24;;;;;;;16.42;9.55;;;;;;;13.92;100.00;98291.88;2632028;28;20380;-77
2022/10/16 01:49:42;;;;;;;17.35;10.00;;;;;;;13.93;100.00;98280.41;2631850;28;20100;-78
2022/10/16 01:51:08;;;;;;;16.92;9.60;;;;;;;13.98;100.00;98286.34;2632070;28;20524;-77
2022/10/16 01:52:27;;;;;;;20.02;9.63;;;;;;;13.71;100.00;98283.13;2631960;28;20052;-77
2022/10/16 01:53:49;;;;;;;13.13;8.50;;;;;;;13.57;100.00;98286.38;2631775;28;20173;-77
2022/10/16 01:55:08;;;;;;;13.77;8.18;;;;;;;13.60;100.00;98277.47;2632082;28;20174;-77
2022/10/16 01:56:25;;;;;;;12.25;6.72;;;;;;;13.71;100.00;98280.50;2631959;28;20482;-77
2022/10/16 01:57:46;;;;;;;13.65;6.97;;;;;;;13.66;100.00;98277.22;2631723;28;20075;-78
2022/10/16 01:59:15;;;;;;;11.70;5.63;;;;;;;13.94;100.00;98278.66;2631869;28;20052;-77
2022/10/16 02:00:31;;;;;;;10.88;5.18;;;;;;;13.98;100.00;98275.81;2631832;28;20124;-77
2022/10/16 02:01:50;;;;;;;6.80;5.00;;;;;;;14.06;100.00;98272.84;2631763;28;20052;-77
2022/10/16 02:03:07;;;;;;;7.80;4.47;;;;;;;14.09;100.00;98269.19;2631695;28;20040;-77
2022/10/16 02:04:37;;;;;;;6.82;4.15;;;;;;;14.06;100.00;98274.59;2631837;28;20059;-77
2022/10/16 02:05:55;;;;;;;9.82;3.90;;;;;;;14.00;100.00;98269.63;2631692;28;20115;-77
2022/10/16 02:07:11;;;;;;;6.43;4.32;;;;;;;14.06;100.00;98269.34;2620524;28;20074;-77
2022/10/16 02:08:30;;;;;;;8.43;4.35;;;;;;;13.92;100.00;98265.56;2625008;28;20486;-77
2022/10/16 02:09:45;;;;;;;7.78;4.10;;;;;;;14.07;100.00;98268.41;2631671;28;20051;-77
2022/10/16 02:11:21;;;;;;;5.55;4.07;;;;;;;14.02;100.00;98275.69;2631700;28;20097;-77
2022/10/16 02:12:51;;;;;;;6.88;3.85;;;;;;;14.23;100.00;98272.06;2631764;28;20052;-77
2022/10/16 02:14:11;;;;;;;7.00;4.38;;;;;;;14.24;100.00;98276.41;2631685;28;20051;-77
2022/10/16 02:15:27;;;;;;;8.95;4.47;;;;;;;14.26;100.00;98279.84;2631573;28;20473;-77
2022/10/16 02:16:45;;;;;;;7.35;4.28;;;;;;;14.25;100.00;98278.13;2631723;28;20048;-77
2022/10/16 02:18:03;;;;;;;8.10;5.28;;;;;;;14.35;100.00;98282.97;2631712;28;20056;-77
2022/10/16 02:19:20;;;;;;;8.63;5.63;;;;;;;14.01;100.00;98284.50;2620523;28;20080;-77
2022/10/16 02:20:48;;;;;;;11.55;5.93;;;;;;;13.98;100.00;98281.09;2625457;28;20051;-77
2022/10/16 02:22:06;;;;;;;8.18;4.93;;;;;;;13.89;100.00;98285.88;2630667;28;20418;-77
2022/10/16 02:23:43;;;;;;;5.82;4.78;;;;;;;14.02;100.00;98288.84;2631673;28;20044;-77
2022/10/16 02:25:06;;;;;;;8.13;5.00;;;;;;;14.19;100.00;98277.56;2631726;28;20055;-77
2022/10/16 02:26:35;;;;;;;10.25;4.82;;;;;;;14.25;100.00;98287.78;2631691;28;20054;-77
2022/10/16 02:28:01;;;;;;;8.57;5.30;;;;;;;14.38;100.00;98285.44;2631712;28;20197;-77
2022/10/16 02:29:25;;;;;;;6.57;4.30;;;;;;;14.37;100.00;98287.25;2631391;28;20487;-77
2022/10/16 02:30:50;;;;;;;8.68;4.82;;;;;;;14.35;100.00;98293.50;2631640;28;20090;-77
2022/10/16 02:32:07;;;;;;;8.25;4.68;;;;;;;14.33;100.00;98290.06;2630695;28;20044;-77
2022/10/16 02:33:25;;;;;;;8.45;4.45;;;;;;;14.24;100.00;98289.56;2630909;28;20181;-77
2022/10/16 02:34:41;;;;;;;7.18;4.53;;;;;;;14.22;100.00;98288.78;2630640;28;20072;-77
2022/10/16 02:35:57;;;;;;;9.60;4.35;;;;;;;13.90;100.00;98293.72;2631029;28;20418;-77
2022/10/16 02:37:13;;;;;;;5.05;4.13;;;;;;;14.26;100.00;98290.38;2631543;28;20512;-77
2022/10/16 02:38:30;;;;;;;8.32;4.40;;;;;;;14.26;100.00;98293.00;2631393;28;20044;-77
2022/10/16 02:39:46;;;;;;;7.55;4.32;;;;;;;14.35;100.00;98290.84;2631311;28;20048;-77
2022/10/16 02:41:01;;;;;;;7.00;4.15;;;;;;;14.50;100.00;98290.16;2631240;28;20502;-77
2022/10/16 02:42:18;;;;;;;6.28;4.60;;;;;;;14.38;100.00;98288.06;2631457;28;20067;-77
2022/10/16 02:43:34;;;;;;;6.15;3.70;;;;;;;14.44;100.00;98293.06;2631479;28;20170;-77
2022/10/16 02:44:50;;;;;;;10.13;4.07;;;;;;;14.16;100.00;98299.59;2631312;28;20093;-77
2022/10/16 02:46:05;;;;;;;6.10;4.40;;;;;;;14.41;100.00;98301.97;2631241;28;20565;-77
2022/10/16 02:47:21;;;;;;;11.73;5.75;;;;;;;14.24;100.00;98301.88;2631301;28;20078;-78
2022/10/16 02:48:36;;;;;;;11.00;5.40;;;;;;;14.08;100.00;98301.72;2631391;28;20048;-77
2022/10/16 02:49:52;;;;;;;8.63;5.00;;;;;;;14.23;100.00;98306.28;2631376;28;20056;-78
2022/10/16 02:51:08;;;;;;;7.22;4.47;;;;;;;14.26;100.00;98297.41;2631480;28;20048;-78
2022/10/16 02:52:23;;;;;;;11.35;4.60;;;;;;;14.05;100.00;98304.50;2631502;28;20756;-78
2022/10/16 02:53:39;;;;;;;8.25;4.28;;;;;;;13.85;100.00;98300.97;2631315;28;20039;-78
2022/10/16 02:54:54;;;;;;;5.30;3.95;;;;;;;13.67;100.00;98303.44;2631267;28;20631;-78
2022/10/16 02:56:10;;;;;;;7.60;4.30;;;;;;;13.83;100.00;98305.44;2631485;28;20133;-78
2022/10/16 02:57:26;;;;;;;12.60;4.68;;;;;;;13.93;100.00;98301.47;2631420;28;20048;-78
2022/10/16 02:58:41;;;;;;;6.82;4.55;;;;;;;14.11;100.00;98294.53;2631438;28;20040;-77
2022/10/16 02:59:57;;;;;;;9.45;4.72;;;;;;;14.26;100.00;98300.03;2631141;28;20081;-78
2022/10/16 03:01:14;;;;;;;5.93;4.18;;;;;;;14.27;100.00;98301.75;2631090;28;20056;-78
2022/10/16 03:02:29;;;;;;;10.15;4.05;;;;;;;14.26;100.00;98294.78;2631078;28;20044;-78
2022/10/16 03:03:45;;;;;;;6.70;4.32;;;;;;;14.08;100.00;98301.72;2631223;28;20048;-78
2022/10/16 03:05:01;;;;;;;7.40;3.90;;;;;;;14.11;100.00;98297.16;2631179;28;20062;-78
2022/10/16 03:06:16;;;;;;;8.88;4.28;;;;;;;13.95;100.00;98306.69;2631231;28;20039;-78
2022/10/16 03:07:32;;;;;;;8.60;4.22;;;;;;;14.09;100.00;98316.59;2631311;28;20048;-78
2022/10/16 03:08:47;;;;;;;6.43;4.78;;;;;;;14.19;100.00;98317.06;2631022;28;20047;-78
2022/10/16 03:10:03;;;;;;;7.45;4.40;;;;;;;14.14;100.00;98314.63;2631315;28;20052;-78
2022/10/16 03:11:19;;;;;;;8.57;4.85;;;;;;;14.07;100.00;98323.69;2631332;28;20051;-77
2022/10/16 03:12:34;;;;;;;7.72;4.72;;;;;;;14.24;100.00;98323.78;2631326;28;20119;-78
2022/10/16 03:13:50;;;;;;;6.75;4.07;;;;;;;14.37;100.00;98331.16;2631161;28;20075;-78
2022/10/16 03:15:07;;;;;;;5.90;4.20;;;;;;;14.45;100.00;98328.16;2631196;28;20052;-78
2022/10/16 03:16:22;;;;;;;8.00;4.50;;;;;;;14.59;100.00;98330.16;2631074;28;20052;-78
2022/10/16 03:17:38;;;;;;;8.10;4.18;;;;;;;14.38;100.00;98331.09;2630984;28;20048;-78
2022/10/16 03:18:53;;;;;;;7.80;4.05;;;;;;;14.41;100.00;98335.38;2631057;28;20521;-78
2022/10/16 03:20:09;;;;;;;6.75;4.30;;;;;;;14.30;100.00;98337.63;2631251;28;20131;-77
2022/10/16 03:21:25;;;;;;;5.45;3.90;;;;;;;14.39;100.00;98338.06;2631105;28;20044;-78
2022/10/16 03:22:40;;;;;;;7.07;4.47;;;;;;;14.60;100.00;98339.78;2631032;28;20055;-78
2022/10/16 03:23:56;;;;;;;10.45;5.63;;;;;;;14.54;100.00;98339.16;2631146;28;20043;-78
2022/10/16 03:25:11;;;;;;;10.57;6.35;;;;;;;14.45;100.00;98334.28;2631024;28;20052;-78
2022/10/16 03:26:27;;;;;;;9.32;5.85;;;;;;;14.32;100.00;98334.00;2631112;28;20051;-78
2022/10/16 03:27:42;;;;;;;8.88;5.53;;;;;;;14.14;100.00;98340.94;2630983;28;20047;-78
2022/10/16 03:28:58;;;;;;;10.45;5.43;;;;;;;14.32;100.00;98338.41;2630857;28;20048;-78
2022/10/16 03:30:14;;;;;;;7.15;5.40;;;;;;;14.25;100.00;98343.09;2630922;28;20067;-78
2022/10/16 03:31:30;;;;;;;10.90;5.13;;;;;;;14.13;100.00;98337.44;2630816;28;20051;-78
2022/10/16 03:32:45;;;;;;;7.10;5.13;;;;;;;14.26;100.00;98339.53;2630534;28;20048;-78
2022/10/16 03:34:01;;;;;;;12.60;5.30;;;;;;;14.36;100.00;98334.69;2630960;28;20049;-78
2022/10/16 03:35:17;;;;;;;9.02;5.20;;;;;;;14.01;100.00;98334.50;2630875;28;20055;-78
2022/10/16 03:36:32;;;;;;;8.45;4.88;;;;;;;14.03;100.00;98332.66;2631094;28;20051;-78
2022/10/16 03:37:48;;;;;;;9.15;4.70;;;;;;;14.07;100.00;98331.59;2630795;28;20087;-78
2022/10/16 03:39:03;;;;;;;11.43;6.93;;;;;;;13.80;100.00;98343.28;2631143;28;20615;-78
2022/10/16 03:40:19;;;;;;;8.93;6.18;;;;;;;14.01;100.00;98337.13;2631052;28;20084;-78
2022/10/16 03:41:34;;;;;;;10.20;6.00;;;;;;;13.67;100.00;98336.81;2631041;28;20060;-77
2022/10/16 03:42:50;;;;;;;7.82;4.90;;;;;;;13.78;100.00;98323.19;2631072;28;20044;-77
2022/10/16 03:44:06;;;;;;;7.13;4.68;;;;;;;14.13;100.00;98326.91;2631165;28;20063;-78
2022/10/16 03:45:21;;;;;;;9.48;5.75;;;;;;;13.98;100.00;98322.34;2630978;28;20492;-78
2022/10/16 03:46:37;;;;;;;15.35;8.13;;;;;;;14.05;100.00;98322.91;2630058;28;20063;-78
2022/10/16 03:47:52;;;;;;;10.45;6.85;;;;;;;13.88;100.00;98318.38;2630878;28;20043;-78
2022/10/16 03:49:08;;;;;;;9.35;5.82;;;;;;;13.81;100.00;98317.78;2631069;28;20051;-78
2022/10/16 03:50:24;;;;;;;8.40;5.80;;;;;;;14.16;100.00;98314.53;2630807;28;20060;-78
2022/10/16 03:51:39;;;;;;;18.10;7.57;;;;;;;13.96;100.00;98330.28;2630797;28;20036;-77
2022/10/16 03:52:55;;;;;;;15.80;9.35;;;;;;;13.46;100.00;98335.94;2630999;28;20565;-77
2022/10/16 03:54:10;;;;;;;13.63;8.68;;;;;;;13.91;100.00;98332.28;2630968;28;20132;-78
2022/10/16 03:55:26;;;;;;;26.10;11.65;;;;;;;13.68;100.00;98335.91;2631067;28;20463;-77
2022/10/16 03:56:42;;;;;;;16.02;11.10;;;;;;;13.85;100.00;98332.56;2630858;28;20056;-77
2022/10/16 03:57:57;;;;;;;18.10;11.32;;;;;;;13.96;100.00;98334.72;2631067;28;20043;-78
2022/10/16 03:59:13;;;;;;;22.33;13.60;;;;;;;13.96;100.00;98346.06;2630532;28;20048;-77
2022/10/16 04:00:28;;;;;;;19.13;11.63;;;;;;;14.15;100.00;98344.41;2630700;28;20513;-78
2022/10/16 04:01:44;;;;;;;16.52;11.27;;;;;;;14.18;100.00;98346.91;2630704;28;20490;-78
2022/10/16 04:03:00;;;;;;;15.52;10.68;;;;;;;14.19;100.00;98351.28;2630933;28;20121;-78
2022/10/16 04:04:16;;;;;;;15.48;10.02;;;;;;;14.19;100.00;98354.75;2631002;28;20058;-78
2022/10/16 04:05:32;;;;;;;18.70;9.80;;;;;;;14.14;100.00;98356.75;2630896;28;20052;-78
2022/10/16 04:06:47;;;;;;;15.18;8.85;;;;;;;13.83;100.00;98356.28;2630946;28;20517;-78
2022/10/16 04:08:03;;;;;;;14.60;8.70;;;;;;;13.92;100.00;98354.19;2630823;28;20071;-77
2022/10/16 04:09:18;;;;;;;11.80;7.60;;;;;;;14.02;100.00;98362.53;2630770;28;20151;-77
2022/10/16 04:10:34;;;;;;;12.77;8.23;;;;;;;14.15;100.00;98362.84;2630759;28;20055;-78
2022/10/16 04:11:53;;;;;;;13.20;7.72;;;;;;;13.97;100.00;98363.59;2630773;28;20101;-78
2022/10/16 04:13:08;;;;;;;17.08;8.13;;;;;;;14.03;100.00;98359.81;2630654;28;20051;-77
2022/10/16 04:14:24;;;;;;;12.95;7.50;;;;;;;13.82;100.00;98354.56;2630857;28;20090;-77
2022/10/16 04:15:39;;;;;;;9.30;6.10;;;;;;;14.14;100.00;98364.63;2630813;28;20052;-77
2022/10/16 04:16:55;;;;;;;8.75;5.55;;;;;;;14.23;100.00;98364.22;2630808;28;20040;-77
2022/10/16 04:18:11;;;;;;;9.18;5.75;;;;;;;14.31;100.00;98368.31;2630782;28;20052;-77
2022/10/16 04:19:26;;;;;;;8.30;5.25;;;;;;;14.18;100.00;98370.59;2630685;28;20055;-77
2022/10/16 04:20:42;;;;;;;7.70;5.18;;;;;;;14.34;100.00;98373.44;2630803;28;20055;-77
2022/10/16 04:21:58;;;;;;;9.45;5.00;;;;;;;14.37;100.00;98365.38;2630883;28;20048;-77
2022/10/16 04:23:13;;;;;;;7.88;4.60;;;;;;;14.47;100.00;98368.47;2630856;28;20123;-77
2022/10/16 04:24:28;;;;;;;10.40;4.57;;;;;;;14.44;100.00;98369.47;2630903;28;20044;-78
2022/10/16 04:25:44;;;;;;;10.23;4.90;;;;;;;14.39;100.00;98368.81;2630793;28;20049;-78
2022/10/16 04:27:00;;;;;;;8.50;5.30;;;;;;;14.14;100.00;98356.75;2630776;28;20048;-77
2022/10/16 04:28:15;;;;;;;12.82;5.47;;;;;;;14.10;100.00;98357.78;2630862;28;20079;-78
2022/10/16 04:29:31;;;;;;;10.23;5.57;;;;;;;14.05;100.00;98365.03;2630459;28;20059;-77
2022/10/16 04:30:46;;;;;;;12.93;5.57;;;;;;;14.29;100.00;98371.00;2630758;28;20059;-78
2022/10/16 04:32:02;;;;;;;10.32;5.82;;;;;;;14.23;100.00;98372.13;2630388;28;20048;-77
2022/10/16 04:33:17;;;;;;;7.75;6.03;;;;;;;14.29;100.00;98362.25;2630725;28;20044;-77
2022/10/16 04:34:33;;;;;;;10.45;5.10;;;;;;;14.26;100.00;98365.88;2630362;28;20397;-77
2022/10/16 04:35:55;;;;;;;9.55;5.38;;;;;;;14.11;100.00;98363.00;2630711;28;20478;-78
2022/10/16 04:37:11;;;;;;;5.85;4.30;;;;;;;14.09;100.00;98366.59;2630607;28;20058;-78
2022/10/16 04:38:26;;;;;;;9.93;4.70;;;;;;;14.05;100.00;98370.28;2630794;28;20079;-78
2022/10/16 04:39:42;;;;;;;6.60;4.63;;;;;;;13.96;100.00;98372.41;2630891;28;20085;-78
2022/10/16 04:40:58;;;;;;;6.45;4.03;;;;;;;13.83;100.00;98377.34;2630581;28;20052;-77
2022/10/16 04:42:13;;;;;;;5.38;4.10;;;;;;;13.94;100.00;98370.78;2630763;28;20048;-77
2022/10/16 04:43:29;;;;;;;8.18;4.05;;;;;;;13.89;100.00;98372.72;2630689;28;20052;-77
2022/10/16 04:44:45;;;;;;;6.97;4.47;;;;;;;14.20;100.00;98379.31;2630899;28;20513;-77
2022/10/16 04:46:01;;;;;;;7.50;4.05;;;;;;;14.24;100.00;98384.34;2632758;28;20063;-77
2022/10/16 04:47:17;;;;;;;7.00;4.57;;;;;;;14.38;100.00;98378.50;2632508;28;20044;-77
2022/10/16 04:48:32;;;;;;;6.20;4.22;;;;;;;14.36;100.00;98376.84;2632505;28;20062;-77
2022/10/16 04:49:48;;;;;;;5.75;4.07;;;;;;;14.45;100.00;98381.72;2632458;28;20077;-78
2022/10/16 04:51:04;;;;;;;7.05;3.95;;;;;;;14.52;100.00;98374.38;2632583;28;20094;-77
2022/10/16 04:52:21;;;;;;;7.03;4.00;;;;;;;14.59;100.00;98374.97;2632557;28;20048;-78
2022/10/16 04:53:36;;;;;;;7.35;4.00;;;;;;;14.64;100.00;98375.59;2632452;28;20040;-78
2022/10/16 04:54:52;;;;;;;4.35;3.38;;;;;;;14.73;100.00;98382.25;2632553;28;20051;-77
2022/10/16 04:56:08;;;;;;;4.93;3.40;;;;;;;14.59;100.00;98377.59;2632634;28;20060;-78
2022/10/16 04:57:23;;;;;;;6.20;3.13;;;;;;;14.64;100.00;98373.81;2632387;28;20044;-77
2022/10/16 04:58:39;;;;;;;6.47;3.30;;;;;;;14.47;100.00;98366.69;2632676;28;20052;-77
2022/10/16 04:59:54;;;;;;;4.68;3.20;;;;;;;14.66;100.00;98382.50;2632480;28;20040;-77
2022/10/16 05:01:10;;;;;;;5.63;2.80;;;;;;;14.57;100.00;98390.00;2632350;28;20465;-77
2022/10/16 05:02:25;;;;;;;3.95;3.00;;;;;;;14.54;100.00;98388.34;2632261;28;20059;-77
2022/10/16 05:03:41;;;;;;;6.07;3.10;;;;;;;14.54;100.00;98381.31;2632532;28;20506;-78
2022/10/16 05:04:56;;;;;;;4.07;3.45;;;;;;;14.52;100.00;98391.03;2632166;28;20406;-77
2022/10/16 05:06:12;;;;;;;6.47;4.05;;;;;;;14.65;100.00;98391.34;2632557;28;20766;-77
2022/10/16 05:07:28;;;;;;;5.50;3.80;;;;;;;14.75;100.00;98391.81;2632221;28;20105;-77
2022/10/16 05:08:43;;;;;;;4.45;3.58;;;;;;;14.44;100.00;98392.31;2632125;28;20119;-77
2022/10/16 05:09:59;;;;;;;11.93;4.10;;;;;;;14.53;100.00;98398.03;2631685;28;20051;-77
2022/10/16 05:11:20;;;;;;;8.85;3.72;;;;;;;14.43;100.00;98394.09;2632124;28;20048;-77
2022/10/16 05:12:36;;;;;;;5.60;3.67;;;;;;;14.36;100.00;98392.66;2632177;28;20040;-77
2022/10/16 05:13:51;;;;;;;4.72;3.72;;;;;;;14.31;100.00;98389.38;2632325;28;20072;-77
2022/10/16 05:15:07;;;;;;;6.35;3.83;;;;;;;14.55;100.00;98387.41;2632247;28;20047;-77
2022/10/16 05:16:23;;;;;;;10.82;3.58;;;;;;;14.70;100.00;98388.50;2631832;28;20483;-78
2022/10/16 05:17:39;;;;;;;4.55;3.17;;;;;;;14.70;100.00;98385.88;2630674;28;20052;-77
2022/10/16 05:18:54;;;;;;;4.78;3.53;;;;;;;14.83;100.00;98394.97;2630813;28;20102;-78
2022/10/16 05:20:10;;;;;;;5.32;3.72;;;;;;;14.94;100.00;98396.22;2631188;28;20052;-78
2022/10/16 05:21:26;;;;;;;4.95;3.53;;;;;;;14.89;100.00;98391.19;2631274;28;20086;-77
2022/10/16 05:22:41;;;;;;;5.28;3.38;;;;;;;14.78;100.00;98394.28;2631391;28;20078;-77
2022/10/16 05:23:57;;;;;;;6.65;3.55;;;;;;;14.82;100.00;98400.28;2631162;28;20064;-77
2022/10/16 05:25:12;;;;;;;4.03;3.63;;;;;;;14.94;100.00;98402.34;2630955;28;20056;-77
2022/10/16 05:26:28;;;;;;;4.15;3.20;;;;;;;14.87;100.00;98400.06;2630977;28;20128;-78
2022/10/16 05:27:47;;;;;;;5.38;3.38;;;;;;;14.71;100.00;98400.75;2630954;28;20056;-80
2022/10/16 05:29:03;;;;;;;5.57;4.22;;;;;;;14.60;100.00;98408.28;2630871;28;20296;-79
2022/10/16 05:30:19;;;;;;;6.80;3.53;;;;;;;14.60;100.00;98403.88;2630900;28;20048;-78
2022/10/16 05:31:34;;;;;;;4.00;3.50;;;;;;;14.37;100.00;98404.88;2631023;28;20076;-78
2022/10/16 05:32:50;;;;;;;6.10;3.42;;;;;;;14.49;100.00;98403.50;2630521;28;20067;-79
2022/10/16 05:34:06;;;;;;;4.00;2.85;;;;;;;14.58;100.00;98404.88;2620556;28;20136;-78
2022/10/16 05:35:21;;;;;;;3.50;2.88;;;;;;;14.47;100.00;98402.72;2620378;28;20122;-79
2022/10/16 05:36:37;;;;;;;4.40;3.20;;;;;;;14.45;100.00;98400.16;2620583;28;20556;-79
2022/10/16 05:37:53;;;;;;;4.20;3.40;;;;;;;14.43;100.00;98409.91;2620788;28;20049;-79
2022/10/16 05:39:08;;;;;;;7.60;3.35;;;;;;;14.43;100.00;98403.75;2621301;28;20109;-81
2022/10/16 05:40:24;;;;;;;4.88;3.30;;;;;;;14.48;100.00;98405.28;2620526;28;20056;-81
2022/10/16 05:41:39;;;;;;;5.78;3.30;;;;;;;14.64;100.00;98401.94;2629201;28;20060;-81
2022/10/16 05:42:55;;;;;;;5.80;3.53;;;;;;;14.78;100.00;98404.00;2631005;28;20593;-81
2022/10/16 05:44:11;;;;;;;8.60;3.28;;;;;;;14.78;100.00;98399.56;2630861;28;20131;-81
2022/10/16 05:45:26;;;;;;;4.10;2.90;;;;;;;14.91;100.00;98404.28;2630990;28;20044;-82
2022/10/16 05:46:42;;;;;;;4.32;2.75;;;;;;;14.93;100.00;98399.78;2630885;28;20052;-81
2022/10/16 05:47:59;;;;;;;5.32;2.88;;;;;;;14.89;100.00;98406.13;2630835;28;20056;-80
2022/10/16 05:49:14;;;;;;;4.60;2.40;;;;;;;14.97;100.00;98401.38;2631025;28;20113;-80
2022/10/16 05:50:30;;;;;;;6.43;3.05;;;;;;;14.91;100.00;98409.53;2630801;28;20047;-80
2022/10/16 05:51:46;;;;;;;6.13;2.42;;;;;;;14.88;100.00;98405.28;2630792;28;20052;-80
2022/10/16 05:53:01;;;;;;;6.15;2.47;;;;;;;14.91;100.00;98404.28;2630773;28;20052;-82
2022/10/16 05:54:17;;;;;;;4.10;2.90;;;;;;;14.96;100.00;98411.03;2630750;28;20044;-82
2022/10/16 05:55:32;;;;;;;4.60;2.78;;;;;;;14.60;100.00;98413.56;2630975;28;20055;-83
2022/10/16 05:56:48;;;;;;;7.72;2.97;;;;;;;14.45;100.00;98417.72;2630831;28;20048;-83
2022/10/16 05:58:03;;;;;;;4.10;2.85;;;;;;;14.42;100.00;98416.09;2630801;28;20051;-82
2022/10/16 05:59:19;;;;;;;8.77;3.20;;;;;;;14.47;100.00;98424.63;2630704;28;20078;-82
2022/10/16 06:00:34;;;;;;;4.72;2.90;;;;;;;14.40;100.00;98417.94;2630778;28;20082;-82
2022/10/16 06:01:50;;;;;;;4.18;3.10;;;;;;;14.63;100.00;98430.09;2631169;28;20048;-84